LJMBLDSP

Guest
Details From LJMB - MARIBOR
To LDSP - SPLIT
Flight Number -
Tags generated
Created
Modified
Stats Distance 179 nm / 331 km
Max Altitude 21,900 ft / 6,675 m
Waypoints 3
Social Downloads 6
Likes 0
Share

Download

Looking for another format? Having issues loading an existing format? Contact us
Advertisement - Login to hide

Notes

Basic altitude profile: - Ascent Rate: 2500ft/min - Ascent Speed: 250kts - Cruise Altitude: 35000ft - Cruise Speed: 420kts - Descent Rate: 1500ft/min - Descent Speed: 250kts Options: - Use NATs: yes - Use PACOTS: yes - Use low airways: yes - Use high airways: yes

Route

LJMB TUPUS LDSP

ID Type Via Altitude (ft/m) Position (lat/lon) Dist (leg/tot) Name
O LJMB APT - 0 / 0 46.48062 / 15.68602 - / 0 nm MARIBOR
TUPUS FIX - 21,900 / 6,675 45.22083 / 15.88972 76 / 76 nm
O LDSP APT - 0 / 0 43.53903 / 16.29811 102 / 178 nm SPLIT

Altitude Profile

Advertisement - Login to hide

Weather


0- 5 10 15 20 25 30 35+ Temperature / °C

Clouds and Precipitation
Forecast for 2021-03-22 12:00 UTC. Updated 2 months ago

Ground ~20,000 ft ~40,000 ft Winds

LJMB

Details ICAO LJMB (MBX)
Name MARIBOR
Region Slovenia
Timezone Europe/Ljubljana (UTC+2.0)
Stats Elevation 875 ft / 267 m (AMSL)
Location 46.479900° 15.686200°
Runways 1
Magnetic Variation 4.325° E

METAR

LJMB 081300Z 16009KT 140V210 9999 FEW046 16/04 Q1021

Decode

TAF

TAF LJMB 081100Z 0812/0912 18008KT 9999 SCT045 PROB30 TEMPO 0906/0912 18010G20KT

Decode

Departure Runways

ID Width Length Bearing (true/mag) Surface Threshold Overrun Markings Lighting
14 148 ft / 45 m 8,210 ft / 2,502 m 146.18° / 141.86° ASPHALT 0 ft / 0 m 0 ft / 0 m APP CENTERLINE EDGE THRESHOLD
32 148 ft / 45 m 8,210 ft / 2,502 m 326.20° / 321.87° ASPHALT 0 ft / 0 m 0 ft / 0 m PREC-APP CENTERLINE EDGE THRESHOLD ALSF-I

LDSP

Details ICAO LDSP (SPU)
Name Split
Region Croatia
Timezone Europe/Zagreb (UTC+2.0)
Stats Elevation 79 ft / 24 m (AMSL)
Location 43.539000° 16.298100°
Runways 1
Magnetic Variation 4.201° E

METAR

LDSP 081300Z VRB08KT CAVOK 24/04 Q1017 BECMG TL1400 30010KT TEMPO 23008KT

Decode

TAF

TAF LDSP 081125Z 0812/0912 23010KT CAVOK TX23/0911Z TN12/0904Z BECMG 0814/0816 31009KT BECMG 0910/0912 23007KT

Decode

Destination Runways

ID Width Length Bearing (true/mag) Surface Threshold Overrun Markings Lighting
05 148 ft / 45 m 8,357 ft / 2,547 m 52.48° / 48.28° ASPHALT 0 ft / 0 m 98 ft / 30 m PREC-APP EDGE THRESHOLD MALS REIL-OMNI
23 148 ft / 45 m 8,357 ft / 2,547 m 232.50° / 228.29° ASPHALT 538 ft / 164 m 820 ft / 250 m APP EDGE THRESHOLD SALS REIL-OMNI

Approach Navaids

Runway Type Ident Frequency Range Bearing (true/mag) Slope Elevation
05 GS IST 110.50 MHz 10 nm / 19 km 53.14° / 48.94 ° 3.00° 52 ft / 16 m (AMSL)
05 OM OM - - 52.57° / 48.37 ° - 145 ft / 44 m (AMSL)
05 LOC-ILS IST 110.50 MHz 18 nm / 33 km 52.57° / 48.37 ° - 69 ft / 21 m (AMSL)
05 MM MM - - 52.57° / 48.37 ° - 0 ft / 0 m (AMSL)

Popular Alternatives